Time;durP1;ratioP1;P1;durP2;ratioP2;P2;SDS_P1;SDS_P2;PMS_P1;PMS_P2;Temp;Humidity;BMP_temperature;BMP_pressure;BME280_temperature;BME280_humidity;BME280_pressure;Samples;Min_cycle;Max_cycle;Signal;HPM_P1;HPM_P2
2023/08/05 00:01:50;;;;;;;4.15;2.13;;;18.90;80.00;;;;;;4960622;28;20028;-72
2023/08/05 00:04:16;;;;;;;3.10;2.05;;;18.90;79.90;;;;;;4960105;28;20457;-72
2023/08/05 00:06:42;;;;;;;3.75;2.38;;;18.80;79.90;;;;;;4960028;28;20024;-71
2023/08/05 00:09:08;;;;;;;3.08;2.30;;;18.90;80.00;;;;;;4959760;28;20030;-71
2023/08/05 00:11:33;;;;;;;4.65;2.70;;;18.90;79.90;;;;;;4959922;28;20031;-71
2023/08/05 00:13:59;;;;;;;3.38;2.65;;;18.80;79.90;;;;;;4959756;28;20034;-72
2023/08/05 00:16:25;;;;;;;3.08;2.35;;;18.80;80.20;;;;;;4960080;28;20027;-72
2023/08/05 00:18:51;;;;;;;5.90;2.97;;;18.80;80.10;;;;;;4960266;28;20102;-71
2023/08/05 00:21:18;;;;;;;4.22;2.83;;;18.80;80.00;;;;;;4958767;29;20038;-71
2023/08/05 00:23:44;;;;;;;5.97;3.60;;;18.80;80.00;;;;;;4958758;29;20027;-71
2023/08/05 00:26:11;;;;;;;4.35;2.97;;;18.90;79.90;;;;;;4959937;28;20438;-72
2023/08/05 00:28:37;;;;;;;6.32;3.45;;;18.90;79.90;;;;;;4960053;28;20115;-71
2023/08/05 00:31:08;;;;;;;5.47;2.85;;;18.90;79.90;;;;;;4959852;28;20027;-71
2023/08/05 00:33:34;;;;;;;4.90;3.00;;;18.90;79.80;;;;;;4958512;29;20397;-71
2023/08/05 00:36:00;;;;;;;5.90;3.25;;;18.90;80.00;;;;;;4959511;28;20091;-71
2023/08/05 00:38:26;;;;;;;4.53;2.90;;;18.90;80.10;;;;;;4959426;28;20023;-71
2023/08/05 00:40:52;;;;;;;4.28;3.10;;;18.90;80.10;;;;;;4959377;28;20032;-72
2023/08/05 00:43:18;;;;;;;6.03;3.20;;;18.90;80.00;;;;;;4959456;28;20055;-71
2023/08/05 00:45:44;;;;;;;4.63;2.67;;;19.00;80.10;;;;;;4959323;28;20085;-71
2023/08/05 00:48:10;;;;;;;4.78;2.80;;;19.00;80.10;;;;;;4959165;28;20350;-72
2023/08/05 00:50:38;;;;;;;4.22;2.40;;;19.00;80.00;;;;;;4959733;28;20034;-71
2023/08/05 00:53:04;;;;;;;3.65;2.40;;;19.00;80.00;;;;;;4959630;28;20031;-71
2023/08/05 00:55:30;;;;;;;5.65;2.85;;;19.00;80.00;;;;;;4959139;28;20031;-72
2023/08/05 00:57:56;;;;;;;4.30;2.88;;;19.10;80.00;;;;;;4959258;28;20035;-72
2023/08/05 01:00:22;;;;;;;4.65;2.40;;;19.10;79.90;;;;;;4958992;28;20030;-72
2023/08/05 01:02:48;;;;;;;4.57;2.92;;;19.10;79.90;;;;;;4959201;28;20024;-71
2023/08/05 01:05:14;;;;;;;5.93;3.10;;;19.10;79.90;;;;;;4958929;28;20027;-72
2023/08/05 01:07:42;;;;;;;8.15;3.50;;;19.10;80.00;;;;;;4959296;28;20129;-71
2023/08/05 01:10:09;;;;;;;4.63;2.75;;;19.10;79.90;;;;;;4958527;28;20059;-71
2023/08/05 01:12:35;;;;;;;6.15;3.40;;;19.10;79.80;;;;;;4958630;28;20027;-71
2023/08/05 01:15:01;;;;;;;4.07;3.20;;;19.00;79.90;;;;;;4958762;28;20020;-72
2023/08/05 01:17:27;;;;;;;4.75;3.38;;;19.00;79.90;;;;;;4958833;28;20027;-72
2023/08/05 01:19:54;;;;;;;8.70;4.05;;;19.00;80.20;;;;;;4957633;28;20358;-72
2023/08/05 01:22:32;;;;;;;6.07;3.33;;;18.90;80.10;;;;;;4958609;28;20034;-72
2023/08/05 01:25:23;;;;;;;5.45;2.90;;;18.90;80.00;;;;;;4958804;28;20046;-71
2023/08/05 01:27:50;;;;;;;4.22;2.70;;;18.90;80.10;;;;;;4958628;29;20035;-72
2023/08/05 01:30:16;;;;;;;3.40;2.60;;;18.90;80.00;;;;;;4958723;28;20027;-71
2023/08/05 01:32:43;;;;;;;3.95;2.65;;;18.90;80.20;;;;;;4958871;28;20070;-72
2023/08/05 01:35:10;;;;;;;3.83;2.50;;;18.80;80.30;;;;;;4958422;28;20037;-72
2023/08/05 01:37:36;;;;;;;5.28;2.42;;;18.80;80.20;;;;;;4958315;28;20457;-72
2023/08/05 01:40:04;;;;;;;4.53;2.25;;;18.80;80.30;;;;;;4958345;28;20490;-71
2023/08/05 01:42:31;;;;;;;3.85;2.30;;;18.80;80.30;;;;;;4958539;28;20027;-71
2023/08/05 01:44:57;;;;;;;4.35;2.47;;;18.70;80.20;;;;;;4958507;28;20027;-72
2023/08/05 01:47:23;;;;;;;4.38;2.28;;;18.70;80.50;;;;;;4958244;28;20039;-72
2023/08/05 01:49:49;;;;;;;4.00;2.22;;;18.70;80.50;;;;;;4958594;28;20113;-72
2023/08/05 01:52:15;;;;;;;4.38;2.30;;;18.70;80.30;;;;;;4958255;28;20035;-72
2023/08/05 01:54:41;;;;;;;6.22;2.97;;;18.70;80.30;;;;;;4958448;28;20353;-72
2023/08/05 01:57:07;;;;;;;5.85;2.67;;;18.70;80.40;;;;;;4957384;28;20103;-72
2023/08/05 01:59:33;;;;;;;4.93;3.20;;;18.80;80.30;;;;;;4957955;28;20019;-72
2023/08/05 02:01:59;;;;;;;5.32;3.58;;;18.80;80.40;;;;;;4958156;28;20063;-72
2023/08/05 02:04:25;;;;;;;7.03;3.85;;;18.80;80.40;;;;;;4957895;28;20454;-72
2023/08/05 02:06:51;;;;;;;5.80;4.10;;;18.80;80.30;;;;;;4956826;28;20477;-72
2023/08/05 02:09:17;;;;;;;5.35;4.25;;;18.80;80.30;;;;;;4957507;28;20054;-72
2023/08/05 02:11:42;;;;;;;7.38;4.40;;;18.80;80.30;;;;;;4958241;28;20123;-71
2023/08/05 02:14:09;;;;;;;8.20;5.00;;;18.80;80.20;;;;;;4957727;28;20066;-72
2023/08/05 02:16:35;;;;;;;8.43;4.38;;;18.80;80.30;;;;;;4958188;28;20086;-72
2023/08/05 02:19:01;;;;;;;6.50;4.32;;;18.80;80.20;;;;;;4957832;28;20020;-72
2023/08/05 02:21:27;;;;;;;6.78;4.40;;;18.80;80.30;;;;;;4957591;28;20023;-71
2023/08/05 02:23:53;;;;;;;6.53;4.25;;;18.80;80.50;;;;;;4957585;28;20036;-72
2023/08/05 02:26:19;;;;;;;5.13;3.53;;;18.80;80.70;;;;;;4957744;28;20087;-72
2023/08/05 02:28:46;;;;;;;5.82;3.30;;;18.80;80.60;;;;;;4957655;28;20035;-71
2023/08/05 02:31:15;;;;;;;5.88;3.50;;;18.80;80.60;;;;;;4957692;28;20038;-72
2023/08/05 02:33:41;;;;;;;5.25;2.97;;;18.80;80.50;;;;;;4957811;28;20035;-71
2023/08/05 02:36:07;;;;;;;5.28;2.90;;;18.80;80.50;;;;;;4957342;28;20020;-72
2023/08/05 02:38:33;;;;;;;7.10;3.28;;;18.70;80.50;;;;;;4957287;28;20031;-72
2023/08/05 02:40:59;;;;;;;4.25;2.90;;;18.70;80.80;;;;;;4957551;28;20027;-72
2023/08/05 02:43:25;;;;;;;5.68;2.80;;;18.70;80.60;;;;;;4957480;28;20039;-71
2023/08/05 02:45:54;;;;;;;5.32;2.95;;;18.70;80.70;;;;;;4957737;28;20418;-72
2023/08/05 02:48:21;;;;;;;5.35;2.50;;;18.60;81.10;;;;;;4957051;28;20039;-71
2023/08/05 02:50:47;;;;;;;4.10;2.75;;;18.70;81.10;;;;;;4957074;28;20518;-72
2023/08/05 02:53:13;;;;;;;3.90;2.55;;;18.70;81.00;;;;;;4956073;28;20031;-72
2023/08/05 02:55:39;;;;;;;3.35;2.60;;;18.60;81.00;;;;;;4957614;28;20366;-72
2023/08/05 02:58:06;;;;;;;7.82;3.88;;;18.60;81.10;;;;;;4957024;28;20042;-72
2023/08/05 03:00:32;;;;;;;6.97;2.85;;;18.60;81.20;;;;;;4957262;28;20094;-72
2023/08/05 03:02:58;;;;;;;5.45;2.90;;;18.50;81.00;;;;;;4957039;28;20457;-72
2023/08/05 03:05:24;;;;;;;4.72;2.67;;;18.50;81.00;;;;;;4957255;28;20038;-72
2023/08/05 03:07:50;;;;;;;6.93;3.50;;;18.50;80.90;;;;;;4959435;28;20066;-72
2023/08/05 03:10:16;;;;;;;10.88;5.20;;;18.50;81.00;;;;;;4960913;28;20055;-72
2023/08/05 03:12:42;;;;;;;10.73;5.35;;;18.50;81.10;;;;;;4961384;28;20465;-72
2023/08/05 03:15:08;;;;;;;9.82;4.68;;;18.50;81.20;;;;;;4961163;28;20477;-72
2023/08/05 03:17:35;;;;;;;7.40;3.83;;;18.50;81.00;;;;;;4960807;28;20078;-73
2023/08/05 03:20:05;;;;;;;7.85;4.22;;;18.50;81.00;;;;;;4961327;28;20019;-72
2023/08/05 03:22:32;;;;;;;5.03;3.35;;;18.60;80.90;;;;;;4960979;28;20096;-71
2023/08/05 03:24:59;;;;;;;9.35;5.20;;;18.60;80.80;;;;;;4960980;28;20034;-72
2023/08/05 03:27:25;;;;;;;11.13;5.28;;;18.60;80.70;;;;;;4960665;28;20050;-72
2023/08/05 03:29:51;;;;;;;6.80;4.00;;;18.60;80.80;;;;;;4960570;28;20031;-74
2023/08/05 03:32:17;;;;;;;6.07;3.42;;;18.60;81.00;;;;;;4961047;28;20057;-72
2023/08/05 03:34:43;;;;;;;7.30;3.85;;;18.50;80.90;;;;;;4960543;28;20027;-72
2023/08/05 03:37:09;;;;;;;11.35;4.57;;;18.50;81.00;;;;;;4960780;28;20034;-72
2023/08/05 03:39:35;;;;;;;9.45;4.13;;;18.60;81.10;;;;;;4960978;28;20350;-72
2023/08/05 03:42:01;;;;;;;9.75;4.53;;;18.50;81.00;;;;;;4960483;28;20464;-72
2023/08/05 03:44:27;;;;;;;5.55;3.20;;;18.50;80.90;;;;;;4960427;28;20357;-72
2023/08/05 03:46:52;;;;;;;4.85;2.88;;;18.60;80.90;;;;;;4960384;28;20034;-72
2023/08/05 03:49:19;;;;;;;5.15;2.83;;;18.50;80.90;;;;;;4960734;28;20434;-72
2023/08/05 03:51:45;;;;;;;5.22;2.85;;;18.50;81.20;;;;;;4959351;29;20023;-72
2023/08/05 03:54:10;;;;;;;4.35;2.70;;;18.50;81.10;;;;;;4960502;28;20102;-72
2023/08/05 03:56:36;;;;;;;4.28;2.78;;;18.50;81.00;;;;;;4960483;28;20043;-73
2023/08/05 03:59:02;;;;;;;4.93;2.95;;;18.50;80.90;;;;;;4960272;28;20409;-73
2023/08/05 04:01:30;;;;;;;5.10;2.65;;;18.50;80.90;;;;;;4960068;28;20114;-74
2023/08/05 04:03:56;;;;;;;7.50;3.40;;;18.50;80.90;;;;;;4959999;28;20379;-73
2023/08/05 04:06:22;;;;;;;4.35;3.13;;;18.50;81.00;;;;;;4960533;28;20023;-71
2023/08/05 04:08:50;;;;;;;6.78;3.63;;;18.50;80.90;;;;;;4959884;28;20082;-71
2023/08/05 04:11:16;;;;;;;5.65;3.60;;;18.50;80.90;;;;;;4960407;28;20105;-72
2023/08/05 04:13:45;;;;;;;6.72;4.22;;;18.50;81.00;;;;;;4960068;28;20082;-73
2023/08/05 04:16:11;;;;;;;6.60;3.92;;;18.50;81.00;;;;;;4960081;28;20098;-70
2023/08/05 04:18:38;;;;;;;6.32;4.20;;;18.50;81.00;;;;;;4958852;28;20031;-73
2023/08/05 04:21:04;;;;;;;6.63;4.07;;;18.50;81.00;;;;;;4960040;28;20023;-73
2023/08/05 04:23:34;;;;;;;5.07;3.90;;;18.50;80.90;;;;;;4959654;28;20446;-73
2023/08/05 04:26:03;;;;;;;5.25;3.50;;;18.50;80.90;;;;;;4959905;28;20034;-73
2023/08/05 04:28:29;;;;;;;4.28;3.30;;;18.50;80.90;;;;;;4959529;28;20473;-73
2023/08/05 04:30:57;;;;;;;3.33;2.80;;;18.50;80.90;;;;;;4959559;28;20458;-73
2023/08/05 04:33:25;;;;;;;5.95;2.63;;;18.50;80.90;;;;;;4959448;28;20059;-73
2023/08/05 04:35:52;;;;;;;2.20;2.00;;;18.60;80.80;;;;;;4959392;28;20468;-73
2023/08/05 04:38:17;;;;;;;4.10;2.50;;;18.60;80.70;;;;;;4959746;28;20055;-73
2023/08/05 04:40:44;;;;;;;2.53;2.20;;;18.60;80.70;;;;;;4959416;28;20106;-73
2023/08/05 04:43:11;;;;;;;3.53;2.92;;;18.60;80.70;;;;;;4959897;28;20470;-73
2023/08/05 04:45:38;;;;;;;3.28;2.80;;;18.60;80.70;;;;;;4959273;28;20481;-70
2023/08/05 04:48:05;;;;;;;5.53;3.00;;;18.60;80.70;;;;;;4959237;28;20107;-73
2023/08/05 04:50:31;;;;;;;5.22;2.90;;;18.60;80.60;;;;;;4959470;28;20038;-72
2023/08/05 04:52:57;;;;;;;5.13;3.17;;;18.60;80.60;;;;;;4959098;28;20031;-70
2023/08/05 04:55:23;;;;;;;4.07;2.92;;;18.60;80.70;;;;;;4959147;28;20102;-71
2023/08/05 04:57:53;;;;;;;3.85;2.67;;;18.60;80.70;;;;;;4959448;28;20102;-72
2023/08/05 05:00:19;;;;;;;4.45;2.30;;;18.60;80.60;;;;;;4958954;28;20465;-71
2023/08/05 05:02:45;;;;;;;4.38;2.45;;;18.60;80.50;;;;;;4958994;28;20066;-73
2023/08/05 05:05:11;;;;;;;2.88;1.77;;;18.60;80.30;;;;;;4959024;28;20399;-71
2023/08/05 05:07:37;;;;;;;3.13;1.95;;;18.60;80.20;;;;;;4958817;28;20035;-71
2023/08/05 05:10:04;;;;;;;2.90;1.80;;;18.60;80.10;;;;;;4958516;28;20406;-71
2023/08/05 05:12:30;;;;;;;2.75;1.70;;;18.50;80.10;;;;;;4959200;29;20485;-71
2023/08/05 05:14:56;;;;;;;3.00;1.60;;;18.40;80.00;;;;;;4958781;28;20050;-71
2023/08/05 05:17:22;;;;;;;2.15;1.55;;;18.40;80.00;;;;;;4958735;28;20019;-71
2023/08/05 05:19:48;;;;;;;2.83;1.58;;;18.40;79.90;;;;;;4957617;29;20047;-72
2023/08/05 05:22:18;;;;;;;3.72;1.70;;;18.40;80.10;;;;;;4957641;28;20027;-71
2023/08/05 05:24:45;;;;;;;1.95;1.38;;;18.20;80.00;;;;;;4958592;28;20079;-72
2023/08/05 05:27:14;;;;;;;1.10;1.00;;;18.20;80.20;;;;;;4958764;28;20111;-71
2023/08/05 05:29:41;;;;;;;1.40;1.30;;;18.10;80.20;;;;;;4958390;28;20108;-71
2023/08/05 05:32:07;;;;;;;1.88;1.02;;;18.10;80.20;;;;;;4958644;28;20027;-71
2023/08/05 05:34:34;;;;;;;1.05;0.95;;;18.00;80.20;;;;;;4958661;28;20441;-72
2023/08/05 05:36:59;;;;;;;1.98;1.00;;;18.00;80.30;;;;;;4958276;28;20031;-71
2023/08/05 05:39:25;;;;;;;1.08;0.98;;;18.00;80.40;;;;;;4958222;28;20028;-72
2023/08/05 05:41:51;;;;;;;1.13;0.93;;;17.90;80.40;;;;;;4958513;28;20019;-72
2023/08/05 05:44:18;;;;;;;2.78;1.00;;;17.90;80.50;;;;;;4958722;28;20366;-71
2023/08/05 05:46:44;;;;;;;2.17;1.00;;;17.90;80.50;;;;;;4958451;28;20017;-71
2023/08/05 05:49:10;;;;;;;2.13;1.00;;;17.90;80.60;;;;;;4957954;28;20339;-72
2023/08/05 05:51:36;;;;;;;1.10;0.90;;;17.90;80.60;;;;;;4958001;28;20122;-71
2023/08/05 05:54:02;;;;;;;0.80;0.80;;;18.00;80.60;;;;;;4958192;28;20042;-71
2023/08/05 05:56:28;;;;;;;2.33;0.98;;;18.00;80.60;;;;;;4957898;28;20027;-71
2023/08/05 05:58:55;;;;;;;1.13;0.70;;;18.00;80.50;;;;;;4958126;28;20031;-72
2023/08/05 06:01:23;;;;;;;2.03;0.77;;;18.00;80.50;;;;;;4958193;28;20093;-72
2023/08/05 06:06:18;;;;;;;0.77;0.77;;;18.10;80.50;;;;;;4958373;28;20429;-73
2023/08/05 06:08:44;;;;;;;1.33;0.95;;;18.10;80.50;;;;;;4957658;28;20079;-72
2023/08/05 06:11:10;;;;;;;1.45;0.90;;;18.20;80.40;;;;;;4957592;28;20047;-72
2023/08/05 06:13:37;;;;;;;0.80;0.70;;;18.10;80.50;;;;;;4957374;28;20049;-72
2023/08/05 06:16:03;;;;;;;0.90;0.80;;;18.20;80.40;;;;;;4957554;28;20109;-72
2023/08/05 06:18:29;;;;;;;0.95;0.65;;;18.20;80.40;;;;;;4955497;28;20027;-71
2023/08/05 06:20:55;;;;;;;1.17;0.88;;;18.30;80.50;;;;;;4955903;28;20031;-71
2023/08/05 06:23:21;;;;;;;1.92;1.00;;;18.30;80.50;;;;;;4956010;28;20046;-71
2023/08/05 06:25:47;;;;;;;1.20;0.80;;;18.30;80.40;;;;;;4955619;29;20110;-71
2023/08/05 06:28:13;;;;;;;0.70;0.65;;;18.30;80.50;;;;;;4956095;28;20403;-72
2023/08/05 06:30:43;;;;;;;2.67;0.98;;;18.40;80.40;;;;;;4957098;28;20104;-71
2023/08/05 06:33:10;;;;;;;1.27;1.10;;;18.40;80.40;;;;;;4957318;28;20038;-72
2023/08/05 06:35:36;;;;;;;1.23;1.13;;;18.40;80.50;;;;;;4956365;28;20023;-72
2023/08/05 06:38:02;;;;;;;3.47;1.42;;;18.40;80.60;;;;;;4957688;28;20086;-72
2023/08/05 06:40:28;;;;;;;1.77;1.17;;;18.40;80.70;;;;;;4957310;28;20019;-72
2023/08/05 06:42:54;;;;;;;3.15;1.30;;;18.40;80.50;;;;;;4957342;28;20033;-72
2023/08/05 06:45:20;;;;;;;3.92;1.42;;;18.40;80.60;;;;;;4957734;28;20114;-72
2023/08/05 06:47:46;;;;;;;2.78;1.58;;;18.40;80.60;;;;;;4957614;28;20090;-72
2023/08/05 06:50:12;;;;;;;1.70;1.33;;;18.50;80.60;;;;;;4957086;28;20098;-72
2023/08/05 06:52:38;;;;;;;3.08;1.80;;;18.50;80.60;;;;;;4957598;28;20122;-72
2023/08/05 06:55:04;;;;;;;2.35;1.73;;;18.50;80.70;;;;;;4957621;28;20064;-72
2023/08/05 06:57:33;;;;;;;2.30;1.70;;;18.50;80.50;;;;;;4957508;28;20058;-71
2023/08/05 06:59:59;;;;;;;2.35;1.70;;;18.50;80.40;;;;;;4957324;28;20034;-72
2023/08/05 07:02:25;;;;;;;2.72;1.80;;;18.50;80.50;;;;;;4957264;28;20027;-72
2023/08/05 07:04:52;;;;;;;2.05;1.55;;;18.50;80.60;;;;;;4956933;28;20031;-72
2023/08/05 07:07:18;;;;;;;4.80;2.10;;;18.50;80.50;;;;;;4956363;29;20466;-72
2023/08/05 07:09:44;;;;;;;2.45;1.70;;;18.50;80.50;;;;;;4956985;28;20043;-72
2023/08/05 07:12:10;;;;;;;4.95;1.98;;;18.50;80.40;;;;;;4957443;28;20034;-71
2023/08/05 07:14:36;;;;;;;4.38;2.20;;;18.60;80.40;;;;;;4956956;28;20035;-72
2023/08/05 07:17:02;;;;;;;4.72;3.08;;;18.60;80.40;;;;;;4956916;28;20102;-72
2023/08/05 07:19:28;;;;;;;3.92;2.95;;;18.60;80.60;;;;;;4956842;28;20109;-71
2023/08/05 07:21:54;;;;;;;4.22;3.08;;;18.60;80.50;;;;;;4956922;28;20408;-72
2023/08/05 07:24:21;;;;;;;6.78;3.90;;;18.60;80.60;;;;;;4957377;28;20035;-72
2023/08/05 07:26:47;;;;;;;4.70;3.05;;;18.70;80.70;;;;;;4956881;28;20066;-71
2023/08/05 07:29:12;;;;;;;4.18;3.03;;;18.70;80.50;;;;;;4956784;28;20090;-71
2023/08/05 07:31:38;;;;;;;5.18;3.13;;;18.70;80.40;;;;;;4957066;28;20019;-72
2023/08/05 07:34:04;;;;;;;3.78;2.60;;;18.80;80.30;;;;;;4957047;28;20032;-71
2023/08/05 07:36:31;;;;;;;3.53;2.45;;;18.80;80.40;;;;;;4956809;28;20449;-71
2023/08/05 07:39:00;;;;;;;5.05;2.28;;;18.90;80.50;;;;;;4955734;29;20047;-71
2023/08/05 07:41:26;;;;;;;3.53;2.33;;;18.90;80.30;;;;;;4956659;28;20103;-72
2023/08/05 07:43:58;;;;;;;3.22;2.25;;;18.90;80.20;;;;;;4956954;28;20055;-72
2023/08/05 07:46:25;;;;;;;3.17;2.08;;;18.90;80.30;;;;;;4956716;28;20074;-71
2023/08/05 07:48:57;;;;;;;2.55;2.13;;;19.00;80.20;;;;;;4956614;28;20078;-72
2023/08/05 07:51:23;;;;;;;3.53;2.00;;;19.00;80.20;;;;;;4956629;28;20035;-72
2023/08/05 07:53:50;;;;;;;3.10;2.20;;;19.00;80.30;;;;;;4957474;28;20082;-72
2023/08/05 07:56:16;;;;;;;2.63;2.20;;;19.10;80.20;;;;;;4960495;28;20115;-72
2023/08/05 07:58:45;;;;;;;2.67;1.80;;;19.10;80.10;;;;;;4960024;28;20042;-72
2023/08/05 08:01:22;;;;;;;2.13;1.90;;;19.20;80.00;;;;;;4960048;28;20035;-72
2023/08/05 08:03:56;;;;;;;2.28;1.80;;;19.20;79.90;;;;;;4960369;28;20031;-72
2023/08/05 08:06:22;;;;;;;2.35;2.05;;;19.20;79.90;;;;;;4959138;29;20090;-72
2023/08/05 08:08:48;;;;;;;2.63;2.08;;;19.30;79.80;;;;;;4960201;28;20031;-72
2023/08/05 08:11:14;;;;;;;3.25;2.08;;;19.30;79.90;;;;;;4959802;28;20131;-72
2023/08/05 08:13:41;;;;;;;4.20;2.50;;;19.40;79.80;;;;;;4959843;28;20023;-73
2023/08/05 08:16:07;;;;;;;3.92;2.00;;;19.40;79.90;;;;;;4960081;28;20027;-73
2023/08/05 08:18:33;;;;;;;3.67;2.70;;;19.40;79.80;;;;;;4959915;28;20038;-72
2023/08/05 08:20:59;;;;;;;3.63;2.28;;;19.40;79.80;;;;;;4959838;28;20339;-70
2023/08/05 08:23:25;;;;;;;4.25;2.40;;;19.50;79.80;;;;;;4960247;28;20324;-73
2023/08/05 08:25:51;;;;;;;3.95;2.40;;;19.50;79.80;;;;;;4960260;28;20090;-73
2023/08/05 08:28:17;;;;;;;2.50;2.10;;;19.60;79.80;;;;;;4958669;29;20023;-70
2023/08/05 08:30:57;;;;;;;3.53;2.33;;;19.50;79.80;;;;;;4959644;28;20110;-72
2023/08/05 08:33:24;;;;;;;3.58;2.30;;;19.60;79.70;;;;;;4959973;28;20027;-71
2023/08/05 08:35:50;;;;;;;2.10;1.88;;;19.70;79.80;;;;;;4959770;28;20023;-73
2023/08/05 08:38:18;;;;;;;2.13;1.85;;;19.60;79.60;;;;;;4959417;28;20472;-72
2023/08/05 08:40:51;;;;;;;2.55;2.20;;;19.70;79.50;;;;;;4959076;28;20046;-72
2023/08/05 08:43:19;;;;;;;3.80;2.60;;;19.70;79.30;;;;;;4959476;28;20443;-72
2023/08/05 08:45:50;;;;;;;2.65;2.42;;;19.70;79.40;;;;;;4959885;28;20067;-72
2023/08/05 08:48:16;;;;;;;3.50;2.60;;;19.80;79.20;;;;;;4959620;28;20114;-72
2023/08/05 08:50:44;;;;;;;4.13;3.00;;;19.80;79.20;;;;;;4958274;28;20036;-72
2023/08/05 08:53:13;;;;;;;6.07;4.60;;;19.90;79.20;;;;;;4959089;28;20023;-72
2023/08/05 08:55:41;;;;;;;7.40;4.93;;;19.90;79.10;;;;;;4959340;28;20034;-72
2023/08/05 08:58:07;;;;;;;7.10;5.45;;;20.00;79.00;;;;;;4958957;28;20033;-72
2023/08/05 09:00:35;;;;;;;10.65;4.72;;;20.00;79.10;;;;;;4959066;28;20335;-72
2023/08/05 09:03:02;;;;;;;3.90;2.95;;;20.10;79.00;;;;;;4958886;29;20031;-72
2023/08/05 09:05:46;;;;;;;4.68;3.38;;;20.20;78.90;;;;;;4958920;28;20075;-71
2023/08/05 09:08:12;;;;;;;3.10;2.33;;;20.30;78.90;;;;;;4959175;28;20505;-72
2023/08/05 09:10:39;;;;;;;2.40;1.85;;;20.40;78.70;;;;;;4958882;28;20059;-70
2023/08/05 09:13:06;;;;;;;2.78;1.73;;;20.40;78.10;;;;;;4958844;28;20038;-69
2023/08/05 09:15:39;;;;;;;2.58;1.83;;;20.40;78.00;;;;;;4959118;28;20164;-70
2023/08/05 09:18:07;;;;;;;2.67;1.80;;;20.50;78.00;;;;;;4958722;28;20027;-71
2023/08/05 09:20:35;;;;;;;3.83;2.00;;;20.60;77.90;;;;;;4958992;28;20023;-72
2023/08/05 09:23:06;;;;;;;5.47;3.10;;;20.80;77.50;;;;;;4958938;29;20143;-72
2023/08/05 09:25:38;;;;;;;4.18;2.65;;;20.90;77.50;;;;;;4959203;28;20035;-72
2023/08/05 09:28:06;;;;;;;3.78;2.70;;;21.00;77.20;;;;;;4958809;28;20075;-72
2023/08/05 09:30:33;;;;;;;3.55;2.22;;;21.10;76.90;;;;;;4957560;29;20031;-72
2023/08/05 09:32:59;;;;;;;3.05;2.38;;;21.20;76.80;;;;;;4958380;28;20031;-72
2023/08/05 09:35:26;;;;;;;3.75;2.95;;;21.40;76.50;;;;;;4958997;28;20070;-72
2023/08/05 09:37:54;;;;;;;4.85;3.95;;;21.50;76.40;;;;;;4958588;28;20346;-72
2023/08/05 09:40:22;;;;;;;5.20;3.60;;;21.70;76.20;;;;;;4957954;29;20054;-72
2023/08/05 09:43:03;;;;;;;7.40;3.97;;;21.80;76.00;;;;;;4958316;28;20545;-72
2023/08/05 09:45:32;;;;;;;6.22;4.05;;;21.90;75.80;;;;;;4957366;29;20347;-72
2023/08/05 09:48:09;;;;;;;7.97;4.70;;;22.10;75.70;;;;;;4958085;28;20042;-71
2023/08/05 09:50:37;;;;;;;5.40;3.72;;;22.30;75.40;;;;;;4957929;29;20031;-72
2023/08/05 09:53:14;;;;;;;4.95;3.40;;;22.40;74.70;;;;;;4957999;28;20023;-72
2023/08/05 09:55:40;;;;;;;5.88;3.38;;;22.50;74.20;;;;;;4958616;28;20043;-72
2023/08/05 09:58:09;;;;;;;4.55;3.58;;;22.50;74.00;;;;;;4958001;28;20051;-72
2023/08/05 10:00:42;;;;;;;4.60;3.65;;;22.60;74.10;;;;;;4958242;28;20081;-72
2023/08/05 10:03:13;;;;;;;4.07;3.53;;;22.60;73.90;;;;;;4958465;28;20106;-72
2023/08/05 10:05:41;;;;;;;4.20;3.03;;;22.70;73.90;;;;;;4956873;29;20042;-72
2023/08/05 10:08:08;;;;;;;3.95;2.88;;;22.80;73.70;;;;;;4957730;28;20039;-72
2023/08/05 10:10:35;;;;;;;4.90;3.40;;;22.80;73.60;;;;;;4957552;28;20394;-72
2023/08/05 10:13:16;;;;;;;5.18;3.25;;;22.90;73.40;;;;;;4957982;28;20027;-72
2023/08/05 10:15:47;;;;;;;3.83;2.83;;;22.90;72.90;;;;;;4958003;28;20031;-72
2023/08/05 10:18:15;;;;;;;2.67;2.00;;;23.00;73.00;;;;;;4957523;28;20117;-71
2023/08/05 10:20:41;;;;;;;3.13;2.17;;;23.00;72.60;;;;;;4957563;28;20450;-72
2023/08/05 10:23:09;;;;;;;1.67;1.50;;;23.10;72.80;;;;;;4957642;28;20045;-72
2023/08/05 10:25:44;;;;;;;4.13;1.80;;;23.30;72.70;;;;;;4957552;28;20066;-72
2023/08/05 10:28:31;;;;;;;1.90;1.67;;;23.40;72.30;;;;;;4956585;28;20114;-72
2023/08/05 10:30:57;;;;;;;2.08;1.55;;;23.50;71.70;;;;;;4957429;28;20053;-72
2023/08/05 10:33:27;;;;;;;4.07;1.80;;;23.60;71.50;;;;;;4957376;28;20335;-72
2023/08/05 10:36:01;;;;;;;1.73;1.42;;;23.80;71.00;;;;;;4957703;28;20075;-72
2023/08/05 10:38:30;;;;;;;2.50;1.75;;;23.90;69.60;;;;;;4957508;28;20425;-72
2023/08/05 10:41:02;;;;;;;2.97;1.73;;;24.00;69.50;;;;;;4957537;28;20031;-72
2023/08/05 10:43:31;;;;;;;2.40;1.75;;;24.10;69.20;;;;;;4956440;29;20039;-72
2023/08/05 10:46:05;;;;;;;1.88;1.40;;;24.10;68.90;;;;;;4957270;28;20031;-72
2023/08/05 10:48:45;;;;;;;1.48;1.10;;;24.10;69.00;;;;;;4957376;28;20078;-72
2023/08/05 10:51:13;;;;;;;1.58;1.20;;;24.10;69.10;;;;;;4957157;28;20112;-72
2023/08/05 10:53:59;;;;;;;1.55;1.00;;;24.10;69.10;;;;;;4956140;29;20035;-72
2023/08/05 10:56:35;;;;;;;1.15;1.02;;;24.10;69.10;;;;;;4957275;28;20023;-72
2023/08/05 10:59:02;;;;;;;2.78;1.40;;;24.00;69.10;;;;;;4957044;28;20031;-72
2023/08/05 11:01:57;;;;;;;2.00;0.93;;;24.00;69.40;;;;;;4957046;28;20023;-72
2023/08/05 11:04:29;;;;;;;1.55;0.82;;;24.00;69.10;;;;;;4957611;28;20441;-72
2023/08/05 11:07:03;;;;;;;1.10;0.85;;;23.90;69.40;;;;;;4957318;28;20028;-71
2023/08/05 11:09:40;;;;;;;1.38;1.27;;;23.90;69.70;;;;;;4956895;28;20633;-71
2023/08/05 11:12:07;;;;;;;1.48;1.27;;;23.80;69.90;;;;;;4957500;28;20027;-72
2023/08/05 11:14:34;;;;;;;2.00;1.42;;;23.70;70.20;;;;;;4957475;28;20027;-72
2023/08/05 11:17:07;;;;;;;1.83;1.20;;;23.70;70.40;;;;;;4957502;28;20066;-72
2023/08/05 11:19:52;;;;;;;1.05;1.02;;;23.60;70.80;;;;;;4957016;28;20038;-72
2023/08/05 11:22:29;;;;;;;0.98;0.88;;;23.40;70.80;;;;;;4956853;28;20043;-72
2023/08/05 11:25:03;;;;;;;0.98;0.90;;;23.30;71.10;;;;;;4957457;28;20495;-72
2023/08/05 11:27:32;;;;;;;0.82;0.65;;;23.30;71.30;;;;;;4957119;28;20446;-72
2023/08/05 11:32:24;;;;;;;1.17;0.90;;;23.20;71.50;;;;;;4961202;28;20054;-71
2023/08/05 11:35:00;;;;;;;2.45;0.90;;;23.20;71.50;;;;;;4960605;28;20066;-72
2023/08/05 11:37:26;;;;;;;1.20;1.10;;;23.20;71.60;;;;;;4961165;28;20030;-72
2023/08/05 11:40:00;;;;;;;2.35;1.30;;;23.20;71.60;;;;;;4960783;28;20024;-72
2023/08/05 11:42:27;;;;;;;1.25;0.75;;;23.10;71.60;;;;;;4960999;28;20035;-71
2023/08/05 11:44:56;;;;;;;2.13;1.20;;;23.00;71.70;;;;;;4960466;29;20073;-72
2023/08/05 11:47:24;;;;;;;1.15;1.02;;;22.90;71.90;;;;;;4960494;28;20027;-71
2023/08/05 11:49:54;;;;;;;1.45;1.20;;;22.90;72.10;;;;;;4960339;28;20090;-72
2023/08/05 11:52:21;;;;;;;1.35;1.25;;;22.90;72.20;;;;;;4959287;29;20037;-72
2023/08/05 11:55:00;;;;;;;2.88;1.98;;;22.90;72.40;;;;;;4960605;28;20039;-71
2023/08/05 11:57:27;;;;;;;1.83;1.73;;;22.90;72.60;;;;;;4960604;28;20023;-72
2023/08/05 11:59:55;;;;;;;2.60;1.90;;;22.90;72.90;;;;;;4960676;28;20098;-72
2023/08/05 12:02:24;;;;;;;2.25;2.03;;;22.80;73.10;;;;;;4960672;28;20342;-72
2023/08/05 12:05:00;;;;;;;2.00;1.60;;;22.80;73.30;;;;;;4960657;28;20031;-71
2023/08/05 12:07:26;;;;;;;3.67;2.00;;;22.80;73.30;;;;;;4960393;28;20038;-72
2023/08/05 12:10:09;;;;;;;2.20;2.00;;;22.70;73.60;;;;;;4959684;28;20051;-71
2023/08/05 12:12:36;;;;;;;3.58;2.60;;;22.60;73.70;;;;;;4959971;28;20110;-72
2023/08/05 12:15:12;;;;;;;3.53;2.65;;;22.60;73.80;;;;;;4959937;28;20469;-71
2023/08/05 12:17:43;;;;;;;4.38;3.03;;;22.60;73.80;;;;;;4958847;29;20020;-71
2023/08/05 12:20:10;;;;;;;3.72;2.97;;;22.60;74.00;;;;;;4958953;29;20074;-71
2023/08/05 12:22:37;;;;;;;4.32;2.95;;;22.50;74.20;;;;;;4960114;28;20019;-71
2023/08/05 12:25:04;;;;;;;6.38;3.95;;;22.50;74.40;;;;;;4960349;28;20106;-71
2023/08/05 12:27:30;;;;;;;3.58;3.05;;;22.40;74.50;;;;;;4959115;28;20366;-71
2023/08/05 12:29:56;;;;;;;4.90;3.65;;;22.40;74.60;;;;;;4959973;28;20378;-71
2023/08/05 12:32:22;;;;;;;4.15;3.20;;;22.40;74.80;;;;;;4959938;28;20047;-71
2023/08/05 12:34:48;;;;;;;4.88;3.10;;;22.40;75.00;;;;;;4960091;28;20426;-71
2023/08/05 12:37:14;;;;;;;6.28;4.00;;;22.40;75.10;;;;;;4959506;28;20031;-72
2023/08/05 12:39:40;;;;;;;4.15;3.13;;;22.40;75.10;;;;;;4958720;28;20023;-72
2023/08/05 12:42:07;;;;;;;4.68;3.33;;;22.40;75.10;;;;;;4958443;29;20042;-72
2023/08/05 12:44:36;;;;;;;4.22;3.50;;;22.40;75.20;;;;;;4959657;28;20358;-72
2023/08/05 12:47:02;;;;;;;5.80;3.72;;;22.40;75.10;;;;;;4959344;28;20098;-72
2023/08/05 12:49:28;;;;;;;5.57;4.05;;;22.40;75.20;;;;;;4959488;28;20050;-72
2023/08/05 12:51:54;;;;;;;4.05;3.10;;;22.50;75.20;;;;;;4959227;28;20414;-71
2023/08/05 12:54:20;;;;;;;3.55;2.97;;;22.50;75.00;;;;;;4959133;28;20069;-72